Search METAR Data

METAR Data for ENBN:

ENBN 220350Z 00000KT CAVOK 11/09 Q1020